createdAt,value
2019-05-13T00:00:35.043Z,17.48
2019-05-13T00:03:06.233Z,16.23
2019-05-13T00:05:37.070Z,16.67
2019-05-13T00:08:07.925Z,16.77
2019-05-13T00:10:38.580Z,17.77
2019-05-13T00:13:09.572Z,16.63
2019-05-13T00:15:40.231Z,17.25
2019-05-13T00:18:11.024Z,16.93
2019-05-13T00:20:44.116Z,17.17
2019-05-13T00:23:14.446Z,17.07
2019-05-13T00:25:47.517Z,16.80
2019-05-13T00:28:18.091Z,17.35
2019-05-13T00:30:49.484Z,17.57
2019-05-13T00:33:20.415Z,16.42
2019-05-13T00:35:53.467Z,16.10
2019-05-13T00:38:24.787Z,16.15
2019-05-13T00:40:55.269Z,17.30
2019-05-13T00:43:25.808Z,15.40
2019-05-13T00:45:57.176Z,15.87
2019-05-13T00:48:29.817Z,18.25
2019-05-13T00:51:00.735Z,16.60
2019-05-13T00:53:31.241Z,15.80
2019-05-13T00:56:04.065Z,16.90
2019-05-13T00:58:34.801Z,16.77
2019-05-13T01:01:05.339Z,18.25
2019-05-13T01:03:36.707Z,16.23
2019-05-13T01:06:07.722Z,19.37
2019-05-13T01:08:38.743Z,17.75
2019-05-13T01:11:09.396Z,16.60
2019-05-13T01:13:40.085Z,16.87
2019-05-13T01:16:10.581Z,17.62
2019-05-13T01:18:43.175Z,16.27
2019-05-13T01:21:13.420Z,17.23
2019-05-13T01:23:44.077Z,17.73
2019-05-13T01:26:15.150Z,17.47
2019-05-13T01:28:45.912Z,15.58
2019-05-13T01:31:16.807Z,17.87
2019-05-13T01:33:47.238Z,18.25
2019-05-13T01:36:18.259Z,19.00
2019-05-13T01:38:48.864Z,19.17
2019-05-13T01:41:19.879Z,18.25
2019-05-13T01:43:50.506Z,18.85
2019-05-13T01:46:21.059Z,16.40
2019-05-13T01:48:54.383Z,18.02
2019-05-13T01:51:24.515Z,15.65
2019-05-13T01:53:55.063Z,16.55
2019-05-13T01:56:25.654Z,17.15
2019-05-13T01:58:56.259Z,17.67
2019-05-13T02:01:28.208Z,18.50
2019-05-13T02:03:58.831Z,19.17
2019-05-13T02:06:29.871Z,19.37
2019-05-13T02:09:00.676Z,18.02
2019-05-13T02:11:34.010Z,18.37
2019-05-13T02:14:05.678Z,20.52
2019-05-13T02:16:37.240Z,18.42
2019-05-13T02:19:08.156Z,17.40
2019-05-13T02:21:38.820Z,19.00
2019-05-13T02:24:11.212Z,19.60
2019-05-13T02:26:43.709Z,16.70
2019-05-13T02:29:14.543Z,17.95
2019-05-13T02:31:51.793Z,16.93
2019-05-13T02:34:18.548Z,18.02
2019-05-13T02:36:52.496Z,16.57
2019-05-13T02:39:22.462Z,17.05
2019-05-13T02:41:53.476Z,18.57
2019-05-13T02:44:24.001Z,17.32
2019-05-13T02:46:54.727Z,17.07
2019-05-13T02:49:25.608Z,20.10
2019-05-13T02:51:56.143Z,17.98
2019-05-13T02:54:27.301Z,18.32
2019-05-13T02:56:59.325Z,20.08
2019-05-13T02:59:33.334Z,22.05
2019-05-13T03:02:04.063Z,20.62
2019-05-13T03:04:34.881Z,19.57
2019-05-13T03:07:05.477Z,20.92
2019-05-13T03:09:37.032Z,20.80
2019-05-13T03:12:07.699Z,18.67
2019-05-13T03:14:38.540Z,19.67
2019-05-13T03:17:14.721Z,18.73
2019-05-13T03:19:45.245Z,19.55
2019-05-13T03:22:16.455Z,20.62
2019-05-13T03:24:47.119Z,20.25
2019-05-13T03:27:20.672Z,20.30
2019-05-13T03:29:53.091Z,22.40
2019-05-13T03:32:27.198Z,19.48
2019-05-13T03:34:56.452Z,21.50
2019-05-13T03:37:28.417Z,21.42
2019-05-13T03:40:03.087Z,20.67
2019-05-13T03:42:35.107Z,20.43
2019-05-13T03:45:06.324Z,21.82
2019-05-13T03:47:37.799Z,19.82
2019-05-13T03:50:08.554Z,20.43
2019-05-13T03:52:43.161Z,23.05
2019-05-13T03:55:13.181Z,20.72
2019-05-13T03:57:44.080Z,21.00
2019-05-13T04:00:14.889Z,21.65
2019-05-13T04:02:46.400Z,19.75
2019-05-13T04:05:17.794Z,21.25
2019-05-13T04:07:52.016Z,19.65
2019-05-13T04:10:22.938Z,19.77
2019-05-13T04:12:53.638Z,21.75
2019-05-13T04:15:25.602Z,20.25
2019-05-13T04:17:56.164Z,21.17
2019-05-13T04:20:27.011Z,20.62
2019-05-13T04:23:03.261Z,21.35
2019-05-13T04:25:34.045Z,20.10
2019-05-13T04:28:05.225Z,22.02
2019-05-13T04:30:37.324Z,21.47
2019-05-13T04:33:08.466Z,23.10
2019-05-13T04:35:42.552Z,22.43
2019-05-13T04:38:13.172Z,19.57
2019-05-13T04:40:44.907Z,22.58
2019-05-13T04:43:16.499Z,22.65
2019-05-13T04:45:46.998Z,20.68
2019-05-13T04:48:22.859Z,19.30
2019-05-13T04:50:53.552Z,24.05
2019-05-13T04:53:24.156Z,19.12
2019-05-13T04:55:54.933Z,19.62
2019-05-13T04:58:25.636Z,20.50
2019-05-13T05:01:14.462Z,21.50
2019-05-13T05:03:53.097Z,19.73
2019-05-13T05:06:55.357Z,22.32
2019-05-13T05:13:22.229Z,22.25
2019-05-13T05:16:13.063Z,22.48
2019-05-13T05:19:02.104Z,22.87
2019-05-13T05:21:39.007Z,23.00
2019-05-13T05:24:42.036Z,20.88
2019-05-13T05:27:47.160Z,23.73
2019-05-13T05:30:57.024Z,20.75
2019-05-13T05:34:11.677Z,20.00
2019-05-13T05:37:13.907Z,24.77
2019-05-13T05:39:46.236Z,22.90
2019-05-13T05:42:17.273Z,18.48
2019-05-13T05:44:51.698Z,21.35
2019-05-13T05:47:24.265Z,23.80
2019-05-13T05:49:57.008Z,21.37
2019-05-13T05:52:31.605Z,18.17
2019-05-13T05:55:04.010Z,23.40
2019-05-13T05:57:36.290Z,19.02
2019-05-13T06:00:11.380Z,15.88
2019-05-13T06:02:48.940Z,22.30
2019-05-13T06:05:31.871Z,22.43
2019-05-13T06:08:03.493Z,20.55
2019-05-13T06:10:46.456Z,21.42
2019-05-13T06:13:07.298Z,22.93
2019-05-13T06:15:38.359Z,15.85
2019-05-13T06:18:11.523Z,18.35
2019-05-13T06:20:41.945Z,16.17
2019-05-13T06:23:13.125Z,17.00
2019-05-13T06:25:43.899Z,18.07
2019-05-13T06:28:15.790Z,19.05
2019-05-13T06:30:46.907Z,14.75
2019-05-13T06:33:17.770Z,11.88
2019-05-13T06:35:54.837Z,12.93
2019-05-13T06:38:26.014Z,16.70
2019-05-13T06:41:02.622Z,13.35
2019-05-13T06:43:31.439Z,14.30
2019-05-13T06:46:02.348Z,15.20
2019-05-13T06:48:36.999Z,16.50
2019-05-13T06:51:11.617Z,14.80
2019-05-13T06:53:42.524Z,19.12
2019-05-13T06:56:14.280Z,28.75
2019-05-13T06:58:47.961Z,15.18
2019-05-13T07:01:21.717Z,15.38
2019-05-13T07:03:53.641Z,15.60
2019-05-13T07:06:28.243Z,11.63
2019-05-13T07:09:01.424Z,14.63
2019-05-13T07:11:37.879Z,14.28
2019-05-13T07:14:12.360Z,12.73
2019-05-13T07:16:44.357Z,13.03
2019-05-13T07:19:15.220Z,12.35
2019-05-13T07:21:51.923Z,14.67
2019-05-13T07:24:28.406Z,15.03
2019-05-13T07:27:01.794Z,10.93
2019-05-13T07:32:08.662Z,15.15
2019-05-13T07:34:44.266Z,11.53
2019-05-13T07:37:15.327Z,10.85
2019-05-13T07:39:46.044Z,12.70
2019-05-13T07:42:17.522Z,11.60
2019-05-13T07:44:48.828Z,9.85
2019-05-13T07:47:22.326Z,11.83
2019-05-13T07:49:53.295Z,10.13
2019-05-13T07:52:23.855Z,10.18
2019-05-13T07:54:55.764Z,15.85
2019-05-13T07:57:28.267Z,12.33
2019-05-13T08:00:02.060Z,8.43
2019-05-13T08:02:32.843Z,15.10
2019-05-13T08:05:11.817Z,10.97
2019-05-13T08:07:44.811Z,10.05
2019-05-13T08:10:16.167Z,9.40
2019-05-13T08:12:47.230Z,7.08
2019-05-13T08:15:18.937Z,8.55
2019-05-13T08:18:03.186Z,9.47
2019-05-13T08:20:36.613Z,9.10
2019-05-13T08:23:07.675Z,7.03
2019-05-13T08:25:38.500Z,12.53
2019-05-13T08:28:14.213Z,10.05
2019-05-13T08:30:44.861Z,7.92
2019-05-13T08:33:16.458Z,11.78
2019-05-13T08:35:53.907Z,10.03
2019-05-13T08:38:28.232Z,10.58
2019-05-13T08:41:01.905Z,7.53
2019-05-13T08:43:33.023Z,9.98
2019-05-13T08:46:04.233Z,5.92
2019-05-13T08:48:34.894Z,9.43
2019-05-13T08:51:14.825Z,8.90
2019-05-13T08:53:45.494Z,7.35
2019-05-13T08:56:15.991Z,6.65
2019-05-13T08:58:47.976Z,8.45
2019-05-13T09:01:18.935Z,8.28
2019-05-13T09:03:51.995Z,7.13
2019-05-13T09:06:23.056Z,8.50
2019-05-13T09:08:55.454Z,7.05
2019-05-13T09:11:27.350Z,6.67
2019-05-13T09:13:59.371Z,7.90
2019-05-13T09:16:32.015Z,6.45
2019-05-13T09:19:07.801Z,7.33
2019-05-13T09:21:39.253Z,6.80
2019-05-13T09:24:24.040Z,8.08
2019-05-13T09:26:43.871Z,11.03
2019-05-13T09:29:15.149Z,5.55
2019-05-13T09:31:48.518Z,6.55
2019-05-13T09:34:22.197Z,7.05
2019-05-13T09:36:55.539Z,6.47
2019-05-13T09:39:27.589Z,9.00
2019-05-13T09:41:58.634Z,7.37
2019-05-13T09:44:38.743Z,6.95
2019-05-13T09:47:15.712Z,8.58
2019-05-13T09:49:46.852Z,6.50
2019-05-13T09:52:17.471Z,6.17
2019-05-13T09:54:52.143Z,8.45
2019-05-13T09:57:32.118Z,6.17
2019-05-13T10:00:16.854Z,8.40
2019-05-13T10:02:57.649Z,6.62
2019-05-13T10:05:32.676Z,5.30
2019-05-13T10:08:05.266Z,6.60
2019-05-13T10:10:42.708Z,5.45
2019-05-13T10:13:18.422Z,4.55
2019-05-13T10:15:54.681Z,8.55
2019-05-13T10:18:28.108Z,5.25
2019-05-13T10:21:00.399Z,3.95
2019-05-13T10:23:33.525Z,6.55
2019-05-13T10:26:07.272Z,6.92
2019-05-13T10:28:45.772Z,5.62
2019-05-13T10:31:28.378Z,9.20
2019-05-13T10:34:02.405Z,6.23
2019-05-13T10:36:33.265Z,5.87
2019-05-13T10:39:05.324Z,4.80
2019-05-13T10:41:36.534Z,6.45
2019-05-13T10:44:07.070Z,7.40
2019-05-13T10:46:38.828Z,6.67
2019-05-13T10:49:12.262Z,7.55
2019-05-13T10:51:42.782Z,4.35
2019-05-13T10:54:16.661Z,7.33
2019-05-13T10:56:48.931Z,4.12
2019-05-13T10:59:22.828Z,5.60
2019-05-13T11:02:05.195Z,12.05
2019-05-13T11:04:41.292Z,5.12
2019-05-13T11:07:16.773Z,6.27
2019-05-13T11:09:47.990Z,7.00
2019-05-13T11:12:19.667Z,6.95
2019-05-13T11:14:55.374Z,9.63
2019-05-13T11:17:31.337Z,7.60
2019-05-13T11:20:03.776Z,6.42
2019-05-13T11:22:34.927Z,8.80
2019-05-13T11:25:06.188Z,5.87
2019-05-13T11:27:37.629Z,9.90
2019-05-13T11:30:08.759Z,11.33
2019-05-13T11:32:42.367Z,7.20
2019-05-13T11:35:13.015Z,5.75
2019-05-13T11:37:44.019Z,6.60
2019-05-13T11:40:15.355Z,4.70
2019-05-13T11:42:45.992Z,5.28
2019-05-13T11:45:16.742Z,7.05
2019-05-13T11:47:47.377Z,4.42
2019-05-13T11:50:17.967Z,8.05
2019-05-13T11:52:48.532Z,7.72
2019-05-13T11:55:23.039Z,7.07
2019-05-13T11:57:54.095Z,6.42
2019-05-13T12:00:53.238Z,9.80
2019-05-13T12:03:24.077Z,6.70
2019-05-13T12:05:55.260Z,7.42
2019-05-13T12:08:27.051Z,7.03
2019-05-13T12:10:58.695Z,7.83
2019-05-13T12:13:29.424Z,8.75
2019-05-13T12:16:03.659Z,6.47
2019-05-13T12:18:43.409Z,7.75
2019-05-13T12:21:15.345Z,9.58
2019-05-13T12:23:47.908Z,9.15
2019-05-13T12:26:18.848Z,11.05
2019-05-13T12:28:53.501Z,12.60
2019-05-13T12:31:22.902Z,4.95
2019-05-13T12:33:54.083Z,6.10
2019-05-13T12:36:24.796Z,7.05
2019-05-13T12:38:55.631Z,6.53
2019-05-13T12:41:26.875Z,5.78
2019-05-13T12:43:57.518Z,5.72
2019-05-13T12:46:29.146Z,10.08
2019-05-13T12:49:03.249Z,7.30
2019-05-13T12:51:33.280Z,7.50
2019-05-13T12:54:04.795Z,7.67
2019-05-13T12:56:35.443Z,7.22
2019-05-13T12:59:06.009Z,8.38
2019-05-13T13:01:37.117Z,5.87
2019-05-13T13:04:08.272Z,6.20
2019-05-13T13:06:41.760Z,10.23
2019-05-13T13:09:12.777Z,6.22
2019-05-13T13:11:44.161Z,8.95
2019-05-13T13:14:17.126Z,7.30
2019-05-13T13:16:47.590Z,8.83
2019-05-13T13:19:21.878Z,7.20
2019-05-13T13:22:03.224Z,8.07
2019-05-13T13:24:51.331Z,7.80
2019-05-13T13:27:25.824Z,6.53
2019-05-13T13:30:02.470Z,7.37
2019-05-13T13:32:35.755Z,6.20
2019-05-13T13:35:08.127Z,5.58
2019-05-13T13:37:45.083Z,9.93
2019-05-13T13:40:13.811Z,10.95
2019-05-13T13:42:44.917Z,7.33
2019-05-13T13:45:16.998Z,5.07
2019-05-13T13:47:59.204Z,7.17
2019-05-13T13:50:24.690Z,5.70
2019-05-13T13:52:54.728Z,6.80
2019-05-13T13:55:26.186Z,4.42
2019-05-13T13:57:57.100Z,5.10
2019-05-13T14:00:40.730Z,5.72
2019-05-13T14:03:06.063Z,7.85
2019-05-13T14:05:36.365Z,6.97
2019-05-13T14:08:05.837Z,9.18
2019-05-13T14:10:36.705Z,9.35
2019-05-13T14:13:08.191Z,5.97
2019-05-13T14:15:41.712Z,8.30
2019-05-13T14:18:14.817Z,5.35
2019-05-13T14:20:45.950Z,6.13
2019-05-13T14:23:16.870Z,5.50
2019-05-13T14:25:47.454Z,6.47
2019-05-13T14:28:18.347Z,10.75
2019-05-13T14:30:51.273Z,8.35
2019-05-13T14:33:22.068Z,7.83
2019-05-13T14:35:53.211Z,8.07
2019-05-13T14:38:23.956Z,7.72
2019-05-13T14:40:54.985Z,13.38
2019-05-13T14:43:26.134Z,7.33
2019-05-13T14:46:02.016Z,8.10
2019-05-13T14:48:32.850Z,6.33
2019-05-13T14:51:04.005Z,7.03
2019-05-13T14:53:34.947Z,7.50
2019-05-13T14:56:09.602Z,8.05
2019-05-13T14:58:48.158Z,5.85
2019-05-13T15:01:22.567Z,9.48
2019-05-13T15:03:52.896Z,9.13
2019-05-13T15:06:26.429Z,7.30
2019-05-13T15:08:57.565Z,11.40
2019-05-13T15:11:28.778Z,7.37
2019-05-13T15:14:02.224Z,8.10
2019-05-13T15:16:31.974Z,7.95
2019-05-13T15:19:02.953Z,10.72
2019-05-13T15:21:33.716Z,7.70
2019-05-13T15:24:04.678Z,10.43
2019-05-13T15:26:35.767Z,8.80
2019-05-13T15:29:06.949Z,8.68
2019-05-13T15:31:37.613Z,6.53
2019-05-13T15:34:08.783Z,9.88
2019-05-13T15:36:41.943Z,7.67
2019-05-13T15:39:12.546Z,15.40
2019-05-13T15:41:43.311Z,10.65
2019-05-13T15:44:15.293Z,8.47
2019-05-13T15:46:46.530Z,6.87
2019-05-13T15:49:17.397Z,12.13
2019-05-13T15:51:49.248Z,8.23
2019-05-13T15:54:22.080Z,10.05
2019-05-13T15:56:52.623Z,7.78
2019-05-13T15:59:23.521Z,7.03
2019-05-13T16:01:54.804Z,7.40
2019-05-13T16:04:25.523Z,9.70
2019-05-13T16:06:57.025Z,9.83
2019-05-13T16:09:27.645Z,9.43
2019-05-13T16:11:58.178Z,12.85
2019-05-13T16:14:31.288Z,11.15
2019-05-13T16:17:01.234Z,8.25
2019-05-13T16:19:32.802Z,8.65
2019-05-13T16:22:04.020Z,10.75
2019-05-13T16:24:35.314Z,9.05
2019-05-13T16:27:06.314Z,12.23
2019-05-13T16:29:37.855Z,10.60
2019-05-13T16:32:08.543Z,10.32
2019-05-13T16:34:42.247Z,6.83
2019-05-13T16:37:13.090Z,12.33
2019-05-13T16:39:44.470Z,9.13
2019-05-13T16:42:15.450Z,8.53
2019-05-13T16:44:46.447Z,11.93
2019-05-13T16:47:17.637Z,10.10
2019-05-13T16:49:48.765Z,11.27
2019-05-13T16:52:21.922Z,10.32
2019-05-13T16:54:53.600Z,8.23
2019-05-13T16:57:25.825Z,9.00
2019-05-13T16:59:58.281Z,9.63
2019-05-13T17:02:28.891Z,9.35
2019-05-13T17:05:01.427Z,10.15
2019-05-13T17:07:32.226Z,9.03
2019-05-13T17:10:03.819Z,10.18
2019-05-13T17:12:34.765Z,9.10
2019-05-13T17:15:06.361Z,7.58
2019-05-13T17:17:37.258Z,10.03
2019-05-13T17:20:09.017Z,8.00
2019-05-13T17:22:42.182Z,11.53
2019-05-13T17:25:12.743Z,9.00
2019-05-13T17:27:43.819Z,8.30
2019-05-13T17:30:14.825Z,8.83
2019-05-13T17:32:51.578Z,14.03
2019-05-13T17:35:22.740Z,10.67
2019-05-13T17:37:53.278Z,9.88
2019-05-13T17:40:32.674Z,7.97
2019-05-13T17:43:03.981Z,11.15
2019-05-13T17:45:35.419Z,5.72
2019-05-13T17:48:06.683Z,6.87
2019-05-13T17:50:38.132Z,9.18
2019-05-13T17:53:12.292Z,7.40
2019-05-13T17:55:45.871Z,7.62
2019-05-13T17:58:16.926Z,8.23
2019-05-13T18:00:47.912Z,10.43
2019-05-13T18:03:19.646Z,9.88
2019-05-13T18:05:51.484Z,8.35
2019-05-13T18:08:23.588Z,11.90
2019-05-13T18:10:54.369Z,6.92
2019-05-13T18:13:27.280Z,11.68
2019-05-13T18:15:58.150Z,8.28
2019-05-13T18:18:40.589Z,10.72
2019-05-13T18:21:03.315Z,7.67
2019-05-13T18:23:33.918Z,7.90
2019-05-13T18:26:05.244Z,8.48
2019-05-13T18:28:36.010Z,8.00
2019-05-13T18:31:06.479Z,11.18
2019-05-13T18:33:37.622Z,10.58
2019-05-13T18:36:09.029Z,10.35
2019-05-13T18:38:41.688Z,9.10
2019-05-13T18:41:12.106Z,9.28
2019-05-13T18:43:42.719Z,9.08
2019-05-13T18:46:13.512Z,11.00
2019-05-13T18:48:58.097Z,11.33
2019-05-13T18:51:16.384Z,9.88
2019-05-13T18:53:47.536Z,10.68
2019-05-13T18:56:18.808Z,10.38
2019-05-13T18:58:49.710Z,11.33
2019-05-13T19:01:21.583Z,10.25
2019-05-13T19:03:52.372Z,9.67
2019-05-13T19:06:24.294Z,7.50
2019-05-13T19:08:55.050Z,9.95
2019-05-13T19:11:25.611Z,8.38
2019-05-13T19:13:56.166Z,9.97
2019-05-13T19:16:26.904Z,9.85
2019-05-13T19:19:11.430Z,8.58
2019-05-13T19:21:31.160Z,13.10
2019-05-13T19:24:03.090Z,9.28
2019-05-13T19:26:34.701Z,9.68
2019-05-13T19:29:06.041Z,9.65
2019-05-13T19:31:36.631Z,9.23
2019-05-13T19:34:12.575Z,9.28
2019-05-13T19:36:43.050Z,9.00
2019-05-13T19:39:14.862Z,9.60
2019-05-13T19:41:46.161Z,7.50
2019-05-13T19:44:16.789Z,9.45
2019-05-13T19:46:47.568Z,10.40
2019-05-13T19:49:29.683Z,10.55
2019-05-13T19:51:52.182Z,9.95
2019-05-13T19:54:25.037Z,9.23
2019-05-13T19:56:55.584Z,7.90
2019-05-13T19:59:26.699Z,9.00
2019-05-13T20:01:57.553Z,10.98
2019-05-13T20:04:28.213Z,8.18
2019-05-13T20:06:59.229Z,9.08
2019-05-13T20:09:32.040Z,10.93
2019-05-13T20:12:02.262Z,9.63
2019-05-13T20:14:33.374Z,10.15
2019-05-13T20:17:04.027Z,7.65
2019-05-13T20:19:47.673Z,8.20
2019-05-13T20:22:11.628Z,8.60
2019-05-13T20:24:42.500Z,8.53
2019-05-13T20:27:13.065Z,8.45
2019-05-13T20:29:43.651Z,11.08
2019-05-13T20:32:14.183Z,8.78
2019-05-13T20:34:45.211Z,11.48
2019-05-13T20:37:16.019Z,8.63
2019-05-13T20:39:47.350Z,7.17
2019-05-13T20:42:17.865Z,8.45
2019-05-13T20:44:48.467Z,7.95
2019-05-13T20:47:20.900Z,10.10
2019-05-13T20:50:01.341Z,8.15
2019-05-13T20:52:24.703Z,11.40
2019-05-13T20:54:55.401Z,8.03
2019-05-13T20:57:26.583Z,9.70
2019-05-13T20:59:57.185Z,6.72
2019-05-13T21:02:28.131Z,10.30
2019-05-13T21:05:01.308Z,7.35
2019-05-13T21:07:32.110Z,8.57
2019-05-13T21:10:02.730Z,8.30
2019-05-13T21:12:33.699Z,11.03
2019-05-13T21:15:04.330Z,8.63
2019-05-13T21:17:34.956Z,11.63
2019-05-13T21:20:18.609Z,7.60
2019-05-13T21:22:38.654Z,7.97
2019-05-13T21:25:09.752Z,8.25
2019-05-13T21:27:42.128Z,10.00
2019-05-13T21:30:13.668Z,7.87
2019-05-13T21:32:44.212Z,8.08
2019-05-13T21:35:15.131Z,8.23
2019-05-13T21:37:46.163Z,10.97
2019-05-13T21:40:21.530Z,8.95
2019-05-13T21:42:52.712Z,6.78
2019-05-13T21:45:23.504Z,8.40
2019-05-13T21:47:54.069Z,11.57
2019-05-13T21:50:35.483Z,12.98
2019-05-13T21:52:57.227Z,7.53
2019-05-13T21:55:28.363Z,9.25
2019-05-13T21:57:58.931Z,9.68
2019-05-13T22:00:35.948Z,8.67
2019-05-13T22:03:06.628Z,7.15
2019-05-13T22:05:37.259Z,9.30
2019-05-13T22:08:08.423Z,8.38
2019-05-13T22:10:41.245Z,8.70
2019-05-13T22:13:11.806Z,11.08
2019-05-13T22:15:42.894Z,7.92
2019-05-13T22:18:13.379Z,7.62
2019-05-13T22:20:49.899Z,9.43
2019-05-13T22:23:16.758Z,7.72
2019-05-13T22:25:47.456Z,11.22
2019-05-13T22:28:18.343Z,8.47
2019-05-13T22:30:51.623Z,8.73
2019-05-13T22:33:22.114Z,8.48
2019-05-13T22:35:53.279Z,9.53
2019-05-13T22:38:26.860Z,7.72
2019-05-13T22:40:58.099Z,8.60
2019-05-13T22:43:28.968Z,8.40
2019-05-13T22:45:59.632Z,7.33
2019-05-13T22:48:32.400Z,7.40
2019-05-13T22:51:03.361Z,9.55
2019-05-13T22:53:34.332Z,8.37
2019-05-13T22:56:05.455Z,7.60
2019-05-13T22:58:36.020Z,8.48
2019-05-13T23:01:06.555Z,7.57
2019-05-13T23:03:37.227Z,5.85
2019-05-13T23:06:07.815Z,7.37
2019-05-13T23:08:38.359Z,6.08
2019-05-13T23:11:09.556Z,7.58
2019-05-13T23:13:42.254Z,7.22
2019-05-13T23:16:12.549Z,6.55
2019-05-13T23:18:43.112Z,5.92
2019-05-13T23:21:13.842Z,8.95
2019-05-13T23:23:44.964Z,6.65
2019-05-13T23:26:15.798Z,8.20
2019-05-13T23:28:46.480Z,7.07
2019-05-13T23:31:17.037Z,8.13
2019-05-13T23:33:47.953Z,7.97
2019-05-13T23:36:18.495Z,9.55
2019-05-13T23:38:51.565Z,9.60
2019-05-13T23:41:22.421Z,7.17
2019-05-13T23:43:52.943Z,6.85
2019-05-13T23:46:23.936Z,8.08
2019-05-13T23:48:54.922Z,8.00
2019-05-13T23:51:25.766Z,6.83
2019-05-13T23:53:56.296Z,8.60
2019-05-13T23:56:27.244Z,5.87
2019-05-13T23:58:57.906Z,8.63
